createdAt,value
2022-07-31T00:00:13.598Z,15.20
2022-07-31T00:02:40.687Z,15.30
2022-07-31T00:05:07.840Z,15.50
2022-07-31T00:07:34.703Z,15.40
2022-07-31T00:10:01.655Z,15.40
2022-07-31T00:12:28.568Z,15.40
2022-07-31T00:14:55.462Z,15.40
2022-07-31T00:17:22.346Z,15.50
2022-07-31T00:19:49.439Z,15.60
2022-07-31T00:22:16.529Z,15.60
2022-07-31T00:24:43.428Z,15.70
2022-07-31T00:27:10.942Z,15.80
2022-07-31T00:29:38.765Z,15.80
2022-07-31T00:32:06.302Z,15.70
2022-07-31T00:34:33.218Z,15.70
2022-07-31T00:37:00.245Z,15.70
2022-07-31T00:39:27.326Z,15.80
2022-07-31T00:41:55.151Z,16.00
2022-07-31T00:44:22.268Z,16.30
2022-07-31T00:46:50.011Z,16.30
2022-07-31T00:49:17.176Z,16.40
2022-07-31T00:51:44.174Z,16.70
2022-07-31T00:54:18.615Z,16.70
2022-07-31T00:56:50.703Z,16.70
2022-07-31T00:59:17.835Z,16.80
2022-07-31T01:01:51.692Z,16.90
2022-07-31T01:04:19.848Z,17.00
2022-07-31T01:06:47.589Z,17.20
2022-07-31T01:09:15.162Z,17.40
2022-07-31T01:11:50.873Z,17.40
2022-07-31T01:14:24.367Z,17.30
2022-07-31T01:16:54.449Z,16.90
2022-07-31T01:19:39.625Z,16.60
2022-07-31T01:22:37.195Z,16.40
2022-07-31T01:25:32.014Z,16.10
2022-07-31T01:27:58.846Z,15.80
2022-07-31T01:30:33.298Z,15.60
2022-07-31T01:33:06.215Z,15.60
2022-07-31T01:35:39.834Z,15.40
2022-07-31T01:38:17.351Z,15.40
2022-07-31T01:40:47.275Z,15.30
2022-07-31T01:43:29.584Z,15.20
2022-07-31T01:45:58.878Z,15.20
2022-07-31T01:48:26.943Z,15.20
2022-07-31T01:50:56.059Z,15.40
2022-07-31T01:53:25.184Z,15.50
2022-07-31T01:56:02.050Z,15.60
2022-07-31T01:58:34.991Z,16.00
2022-07-31T02:01:03.918Z,15.90
2022-07-31T02:03:43.598Z,16.00
2022-07-31T02:06:18.213Z,16.10
2022-07-31T02:08:51.718Z,16.10
2022-07-31T02:11:20.177Z,16.10
2022-07-31T02:13:48.548Z,16.30
2022-07-31T02:16:18.591Z,16.40
2022-07-31T02:18:48.479Z,16.40
2022-07-31T02:21:16.167Z,16.70
2022-07-31T02:23:43.074Z,16.70
2022-07-31T02:26:10.269Z,16.60
2022-07-31T02:28:40.817Z,16.60
2022-07-31T02:31:11.011Z,16.60
2022-07-31T02:33:40.158Z,16.60
2022-07-31T02:36:08.630Z,16.80
2022-07-31T02:38:37.453Z,17.10
2022-07-31T02:41:05.760Z,17.30
2022-07-31T02:43:34.978Z,17.70
2022-07-31T02:46:03.360Z,17.70
2022-07-31T02:48:31.161Z,18.00
2022-07-31T02:50:59.335Z,18.20
2022-07-31T02:53:27.264Z,18.20
2022-07-31T02:55:54.977Z,18.20
2022-07-31T02:58:21.918Z,18.20
2022-07-31T03:00:57.864Z,18.20
2022-07-31T03:03:24.820Z,18.40
2022-07-31T03:05:52.804Z,18.50
2022-07-31T03:08:19.661Z,18.50
2022-07-31T03:10:47.274Z,18.50
2022-07-31T03:13:15.752Z,18.40
2022-07-31T03:15:50.105Z,18.40
2022-07-31T03:18:21.843Z,18.20
2022-07-31T03:20:53.058Z,18.20
2022-07-31T03:23:25.403Z,18.10
2022-07-31T03:25:53.809Z,18.00
2022-07-31T03:28:21.699Z,18.00
2022-07-31T03:30:51.962Z,18.00
2022-07-31T03:33:23.661Z,17.90
2022-07-31T03:35:51.224Z,17.90
2022-07-31T03:38:40.902Z,17.90
2022-07-31T03:41:05.321Z,17.90
2022-07-31T03:43:47.020Z,17.90
2022-07-31T03:46:17.296Z,17.90
2022-07-31T03:48:44.950Z,17.90
2022-07-31T03:51:13.321Z,17.80
2022-07-31T03:53:41.443Z,17.70
2022-07-31T03:56:09.715Z,17.90
2022-07-31T03:58:38.661Z,18.20
2022-07-31T04:01:10.636Z,18.30
2022-07-31T04:03:39.268Z,18.50
2022-07-31T04:06:06.320Z,18.70
2022-07-31T04:08:33.927Z,18.80
2022-07-31T04:11:00.805Z,18.90
2022-07-31T04:13:28.492Z,19.00
2022-07-31T04:15:55.430Z,19.10
2022-07-31T04:18:22.471Z,19.20
2022-07-31T04:20:49.646Z,19.20
2022-07-31T04:23:16.933Z,19.30
2022-07-31T04:25:43.791Z,19.30
2022-07-31T04:28:10.753Z,19.30
2022-07-31T04:30:38.262Z,19.40
2022-07-31T04:33:05.195Z,19.40
2022-07-31T04:35:32.102Z,19.40
2022-07-31T04:37:58.962Z,19.50
2022-07-31T04:40:27.570Z,19.50
2022-07-31T04:42:55.244Z,19.60
2022-07-31T04:45:22.293Z,19.50
2022-07-31T04:47:49.227Z,19.60
2022-07-31T04:50:16.107Z,19.50
2022-07-31T04:52:43.036Z,19.30
2022-07-31T04:55:10.202Z,19.20
2022-07-31T04:57:37.126Z,19.00
2022-07-31T05:00:05.770Z,18.70
2022-07-31T05:02:33.038Z,18.60
2022-07-31T05:04:59.913Z,18.50
2022-07-31T05:07:28.874Z,18.30
2022-07-31T05:09:56.873Z,18.40
2022-07-31T05:12:23.766Z,18.30
2022-07-31T05:14:51.402Z,18.30
2022-07-31T05:17:18.238Z,18.30
2022-07-31T05:19:45.161Z,18.30
2022-07-31T05:22:12.463Z,18.40
2022-07-31T05:24:39.715Z,18.50
2022-07-31T05:27:06.879Z,18.60
2022-07-31T05:29:34.055Z,18.70
2022-07-31T05:32:01.770Z,18.80
2022-07-31T05:34:30.076Z,18.90
2022-07-31T05:37:01.773Z,19.00
2022-07-31T05:39:29.189Z,19.00
2022-07-31T05:41:56.078Z,19.20
2022-07-31T05:44:23.145Z,19.30
2022-07-31T05:49:16.040Z,19.50
2022-07-31T05:51:44.000Z,19.60
2022-07-31T05:54:10.895Z,19.80
2022-07-31T05:56:37.866Z,19.90
2022-07-31T05:59:04.779Z,20.00
2022-07-31T06:01:31.818Z,20.20
2022-07-31T06:03:58.718Z,20.30
2022-07-31T06:06:26.033Z,20.40
2022-07-31T06:08:53.031Z,20.50
2022-07-31T06:11:20.182Z,20.60
2022-07-31T06:13:47.074Z,20.70
2022-07-31T06:16:14.990Z,20.80
2022-07-31T06:18:42.988Z,21.00
2022-07-31T06:23:37.398Z,21.20
2022-07-31T06:26:04.935Z,21.30
2022-07-31T06:28:48.149Z,21.50
2022-07-31T06:31:25.244Z,21.50
2022-07-31T06:33:52.674Z,21.50
2022-07-31T06:36:19.874Z,21.40
2022-07-31T06:38:46.881Z,21.40
2022-07-31T06:41:32.704Z,21.40
2022-07-31T06:43:59.553Z,21.20
2022-07-31T06:46:26.437Z,21.20
2022-07-31T06:48:53.378Z,21.30
2022-07-31T06:51:30.718Z,21.40
2022-07-31T06:54:00.294Z,21.70
2022-07-31T06:56:27.571Z,22.00
2022-07-31T06:58:55.282Z,22.40
2022-07-31T07:01:22.569Z,22.70
2022-07-31T07:03:49.567Z,22.80
2022-07-31T07:06:16.599Z,23.00
2022-07-31T07:08:43.920Z,23.10
2022-07-31T07:11:12.415Z,23.30
2022-07-31T07:13:45.948Z,23.20
2022-07-31T07:16:16.121Z,23.10
2022-07-31T07:18:43.660Z,23.10
2022-07-31T07:21:11.153Z,23.00
2022-07-31T07:23:38.039Z,23.20
2022-07-31T07:26:05.611Z,23.50
2022-07-31T07:28:32.782Z,23.70
2022-07-31T07:30:59.823Z,23.90
2022-07-31T07:33:40.239Z,23.80
2022-07-31T07:36:22.834Z,23.90
2022-07-31T07:38:55.218Z,24.30
2022-07-31T07:41:23.523Z,24.40
2022-07-31T07:43:52.308Z,24.20
2022-07-31T07:46:20.807Z,24.70
2022-07-31T07:48:47.784Z,24.60
2022-07-31T07:51:14.787Z,24.50
2022-07-31T07:53:41.658Z,24.70
2022-07-31T07:56:08.614Z,24.70
2022-07-31T07:58:35.462Z,24.50
2022-07-31T08:01:02.379Z,24.30
2022-07-31T08:03:51.249Z,23.90
2022-07-31T08:06:16.200Z,23.90
2022-07-31T08:08:43.157Z,24.10
2022-07-31T08:11:10.075Z,24.10
2022-07-31T08:13:39.847Z,23.80
2022-07-31T08:16:07.994Z,23.60
2022-07-31T08:18:34.855Z,23.60
2022-07-31T08:21:01.783Z,23.70
2022-07-31T08:23:28.703Z,23.80
2022-07-31T08:25:55.606Z,23.80
2022-07-31T08:28:26.053Z,23.90
2022-07-31T08:30:54.004Z,23.80
2022-07-31T08:33:21.175Z,23.90
2022-07-31T08:35:50.583Z,24.00
2022-07-31T08:38:20.861Z,24.10
2022-07-31T08:40:47.867Z,24.10
2022-07-31T08:43:59.933Z,24.20
2022-07-31T08:46:03.005Z,24.20
2022-07-31T08:48:32.794Z,24.30
2022-07-31T08:51:03.169Z,24.30
2022-07-31T08:53:33.097Z,24.30
2022-07-31T08:56:00.540Z,24.40
2022-07-31T08:58:27.454Z,24.50
2022-07-31T09:00:55.155Z,24.50
2022-07-31T09:03:22.591Z,24.70
2022-07-31T09:05:49.747Z,24.80
2022-07-31T09:08:16.706Z,24.80
2022-07-31T09:10:49.290Z,25.00
2022-07-31T09:13:18.508Z,24.90
2022-07-31T09:15:45.797Z,25.10
2022-07-31T09:18:24.720Z,25.20
2022-07-31T09:21:02.417Z,24.80
2022-07-31T09:23:30.207Z,24.90
2022-07-31T09:26:05.893Z,25.00
2022-07-31T09:28:38.179Z,25.10
2022-07-31T09:31:06.451Z,25.10
2022-07-31T09:33:33.989Z,25.00
2022-07-31T09:36:01.113Z,25.00
2022-07-31T09:38:33.818Z,25.20
2022-07-31T09:41:56.181Z,25.20
2022-07-31T09:44:09.539Z,24.90
2022-07-31T09:46:45.721Z,24.80
2022-07-31T09:49:13.048Z,24.80
2022-07-31T09:51:41.945Z,24.80
2022-07-31T09:54:19.382Z,24.80
2022-07-31T09:56:46.904Z,24.90
2022-07-31T09:59:13.786Z,25.00
2022-07-31T10:01:41.455Z,24.80
2022-07-31T10:04:10.275Z,25.00
2022-07-31T10:06:39.315Z,25.10
2022-07-31T10:09:07.511Z,25.20
2022-07-31T10:11:34.400Z,25.40
2022-07-31T10:14:03.759Z,25.50
2022-07-31T10:16:36.279Z,25.70
2022-07-31T10:19:11.293Z,25.60
2022-07-31T10:21:41.827Z,25.60
2022-07-31T10:24:10.614Z,25.70
2022-07-31T10:26:59.861Z,25.70
2022-07-31T10:29:26.491Z,25.90
2022-07-31T10:31:53.948Z,26.00
2022-07-31T10:34:22.119Z,25.90
2022-07-31T10:36:51.911Z,26.00
2022-07-31T10:39:31.567Z,26.00
2022-07-31T10:42:23.414Z,26.10
2022-07-31T10:45:09.829Z,26.30
2022-07-31T10:47:37.023Z,26.50
2022-07-31T10:50:04.693Z,26.60
2022-07-31T10:52:35.250Z,26.90
2022-07-31T10:55:02.627Z,26.90
2022-07-31T10:57:32.045Z,26.60
2022-07-31T11:00:20.740Z,26.40
2022-07-31T11:02:48.476Z,26.40
2022-07-31T11:05:28.038Z,26.50
2022-07-31T11:08:04.514Z,26.80
2022-07-31T11:10:34.129Z,26.50
2022-07-31T11:13:05.322Z,26.80
2022-07-31T11:15:32.569Z,26.60
2022-07-31T11:18:16.654Z,26.50
2022-07-31T11:20:47.840Z,26.30
2022-07-31T11:23:16.750Z,26.10
2022-07-31T11:25:46.944Z,26.20
2022-07-31T11:28:21.421Z,26.00
2022-07-31T11:30:50.026Z,26.10
2022-07-31T11:33:28.126Z,26.40
2022-07-31T11:36:06.783Z,26.40
2022-07-31T11:38:34.102Z,26.30
2022-07-31T11:41:01.059Z,26.50
2022-07-31T11:43:28.955Z,26.50
2022-07-31T11:45:57.106Z,27.00
2022-07-31T11:48:27.910Z,27.50
2022-07-31T11:50:55.391Z,27.90
2022-07-31T11:53:22.436Z,28.00
2022-07-31T11:55:54.709Z,28.00
2022-07-31T11:58:23.464Z,27.80
2022-07-31T12:01:01.702Z,27.60
2022-07-31T12:03:33.231Z,27.60
2022-07-31T12:06:00.412Z,27.40
2022-07-31T12:08:27.868Z,27.10
2022-07-31T12:10:56.609Z,26.60
2022-07-31T12:13:25.033Z,26.80
2022-07-31T12:16:10.036Z,27.00
2022-07-31T12:18:50.750Z,27.20
2022-07-31T12:21:19.279Z,27.00
2022-07-31T12:23:51.454Z,27.20
2022-07-31T12:26:29.923Z,27.30
2022-07-31T12:29:00.717Z,27.10
2022-07-31T12:31:29.593Z,26.90
2022-07-31T12:33:56.692Z,26.70
2022-07-31T12:36:23.731Z,26.90
2022-07-31T12:39:01.419Z,27.10
2022-07-31T12:41:29.691Z,27.20
2022-07-31T12:44:13.440Z,27.20
2022-07-31T12:46:41.775Z,27.50
2022-07-31T12:49:08.956Z,27.50
2022-07-31T12:51:45.637Z,27.30
2022-07-31T12:54:17.534Z,27.30
2022-07-31T12:56:45.435Z,27.30
2022-07-31T12:59:12.716Z,27.70
2022-07-31T13:01:39.876Z,27.80
2022-07-31T13:04:07.734Z,27.60
2022-07-31T13:06:36.228Z,27.60
2022-07-31T13:09:03.383Z,27.30
2022-07-31T13:11:46.665Z,27.30
2022-07-31T13:14:19.656Z,27.00
2022-07-31T13:16:47.567Z,26.70
2022-07-31T13:19:15.487Z,26.70
2022-07-31T13:21:48.898Z,26.80
2022-07-31T13:24:18.169Z,26.90
2022-07-31T13:26:45.567Z,27.10
2022-07-31T13:29:13.092Z,27.00
2022-07-31T13:31:40.176Z,27.10
2022-07-31T13:34:07.528Z,27.20
2022-07-31T13:36:39.343Z,27.40
2022-07-31T13:39:07.849Z,27.30
2022-07-31T13:41:35.598Z,27.60
2022-07-31T13:44:03.528Z,27.50
2022-07-31T13:46:31.665Z,27.60
2022-07-31T13:49:00.269Z,27.60
2022-07-31T13:51:30.029Z,27.80
2022-07-31T13:53:57.274Z,27.70
2022-07-31T13:56:41.116Z,27.80
2022-07-31T13:59:14.118Z,27.70
2022-07-31T14:02:03.062Z,27.50
2022-07-31T14:04:32.245Z,27.50
2022-07-31T14:07:01.277Z,27.40
2022-07-31T14:09:30.481Z,27.30
2022-07-31T14:11:57.434Z,27.10
2022-07-31T14:14:24.421Z,26.80
2022-07-31T14:16:51.382Z,26.70
2022-07-31T14:19:18.311Z,26.80
2022-07-31T14:21:56.235Z,26.70
2022-07-31T14:24:24.536Z,26.50
2022-07-31T14:26:51.587Z,26.10
2022-07-31T14:29:18.530Z,26.00
2022-07-31T14:31:45.416Z,25.80
2022-07-31T14:34:12.298Z,25.60
2022-07-31T14:36:39.179Z,25.40
2022-07-31T14:39:06.154Z,25.40
2022-07-31T14:41:34.196Z,25.30
2022-07-31T14:44:01.088Z,25.30
2022-07-31T14:46:28.002Z,25.40
2022-07-31T14:48:55.014Z,25.50
2022-07-31T14:51:22.051Z,25.70
2022-07-31T14:53:49.080Z,26.00
2022-07-31T14:56:27.293Z,26.40
2022-07-31T14:59:03.477Z,27.00
2022-07-31T15:01:30.954Z,27.60
2022-07-31T15:03:58.456Z,28.10
2022-07-31T15:06:39.868Z,28.20
2022-07-31T15:09:15.019Z,28.00
2022-07-31T15:11:59.578Z,28.30
2022-07-31T15:14:29.500Z,28.20
2022-07-31T15:16:56.639Z,28.20
2022-07-31T15:19:23.524Z,28.50
2022-07-31T15:22:16.032Z,28.80
2022-07-31T15:24:39.277Z,28.90
2022-07-31T15:27:09.326Z,29.10
2022-07-31T15:30:06.175Z,29.30
2022-07-31T15:32:23.063Z,29.40
2022-07-31T15:34:49.966Z,29.30
2022-07-31T15:37:20.334Z,29.30
2022-07-31T15:40:02.810Z,29.30
2022-07-31T15:42:33.988Z,29.00
2022-07-31T15:45:01.086Z,28.70
2022-07-31T15:47:28.183Z,28.40
2022-07-31T15:49:55.233Z,28.20
2022-07-31T15:52:22.238Z,28.20
2022-07-31T15:54:52.235Z,28.30
2022-07-31T15:57:23.210Z,28.50
2022-07-31T15:59:54.222Z,28.20
2022-07-31T16:02:21.942Z,27.90
2022-07-31T16:04:52.958Z,27.70
2022-07-31T16:08:29.415Z,27.60
2022-07-31T16:10:15.379Z,27.80
2022-07-31T16:12:47.808Z,28.90
2022-07-31T16:15:16.517Z,30.70
2022-07-31T16:17:43.819Z,32.70
2022-07-31T16:20:25.436Z,33.00
2022-07-31T16:22:56.464Z,34.40
2022-07-31T16:25:24.736Z,36.30
2022-07-31T16:27:51.743Z,37.60
2022-07-31T16:30:18.705Z,38.90
2022-07-31T16:32:45.722Z,39.40
2022-07-31T16:35:12.912Z,40.10
2022-07-31T16:37:51.016Z,40.70
2022-07-31T16:40:30.599Z,41.30
2022-07-31T16:43:47.276Z,41.60
2022-07-31T16:45:51.070Z,40.80
2022-07-31T16:48:18.353Z,36.70
2022-07-31T16:50:48.251Z,34.70
2022-07-31T16:54:09.748Z,33.10
2022-07-31T16:56:09.539Z,31.30
2022-07-31T16:58:36.460Z,34.20
2022-07-31T17:01:04.338Z,32.90
2022-07-31T17:04:01.610Z,30.70
2022-07-31T17:06:18.403Z,30.20
2022-07-31T17:09:15.956Z,31.70
2022-07-31T17:11:49.542Z,30.20
2022-07-31T17:14:21.545Z,29.30
2022-07-31T17:16:50.188Z,28.50
2022-07-31T17:19:41.785Z,28.20
2022-07-31T17:22:08.375Z,28.70
2022-07-31T17:24:38.962Z,27.80
2022-07-31T17:27:09.993Z,26.60
2022-07-31T17:29:38.221Z,26.20
2022-07-31T17:32:06.359Z,25.70
2022-07-31T17:34:35.351Z,25.50
2022-07-31T17:37:02.651Z,25.50
2022-07-31T17:39:31.186Z,25.40
2022-07-31T17:41:59.110Z,25.30
2022-07-31T17:44:26.369Z,25.20
2022-07-31T17:46:54.612Z,25.00
2022-07-31T17:49:21.676Z,24.70
2022-07-31T17:51:57.612Z,24.50
2022-07-31T17:54:28.539Z,24.20
2022-07-31T17:56:55.616Z,24.00
2022-07-31T17:59:23.263Z,23.80
2022-07-31T18:01:52.256Z,23.60
2022-07-31T18:04:21.157Z,23.30
2022-07-31T18:06:54.478Z,23.20
2022-07-31T18:09:23.426Z,23.00
2022-07-31T18:11:51.890Z,22.90
2022-07-31T18:14:19.690Z,22.70
2022-07-31T18:16:47.752Z,22.60
2022-07-31T18:19:15.338Z,22.60
2022-07-31T18:21:42.334Z,22.50
2022-07-31T18:24:09.357Z,22.40
2022-07-31T18:26:37.386Z,22.30
2022-07-31T18:29:04.496Z,22.20
2022-07-31T18:31:35.453Z,22.10
2022-07-31T18:34:07.114Z,21.90
2022-07-31T18:36:35.456Z,21.70
2022-07-31T18:39:04.176Z,21.50
2022-07-31T18:41:31.591Z,21.30
2022-07-31T18:43:58.624Z,21.20
2022-07-31T18:46:25.845Z,21.10
2022-07-31T18:48:55.886Z,21.00
2022-07-31T18:51:24.336Z,20.80
2022-07-31T18:53:51.834Z,20.80
2022-07-31T18:56:22.502Z,20.80
2022-07-31T18:58:49.524Z,20.80
2022-07-31T19:01:16.497Z,20.70
2022-07-31T19:03:43.395Z,20.60
2022-07-31T19:06:11.593Z,20.50
2022-07-31T19:08:38.656Z,20.40
2022-07-31T19:11:06.661Z,20.20
2022-07-31T19:13:33.688Z,20.20
2022-07-31T19:16:04.184Z,20.20
2022-07-31T19:18:31.055Z,20.20
2022-07-31T19:21:23.639Z,20.10
2022-07-31T19:23:45.861Z,20.10
2022-07-31T19:26:12.849Z,20.10
2022-07-31T19:28:40.220Z,20.10
2022-07-31T19:31:07.571Z,20.10
2022-07-31T19:33:34.588Z,20.20
2022-07-31T19:36:03.174Z,20.20
2022-07-31T19:38:31.801Z,20.20
2022-07-31T19:40:59.328Z,20.20
2022-07-31T19:43:26.656Z,20.20
2022-07-31T19:46:09.740Z,20.20
2022-07-31T19:48:43.978Z,20.20
2022-07-31T19:51:12.998Z,20.30
2022-07-31T19:53:41.618Z,20.20
2022-07-31T19:56:10.228Z,20.30
2022-07-31T19:58:38.132Z,20.30
2022-07-31T20:01:05.934Z,20.30
2022-07-31T20:03:33.532Z,20.30
2022-07-31T20:06:01.151Z,20.30
2022-07-31T20:08:30.947Z,20.30
2022-07-31T20:11:04.137Z,20.30
2022-07-31T20:13:36.084Z,20.20
2022-07-31T20:16:04.229Z,20.10
2022-07-31T20:18:31.207Z,20.00
2022-07-31T20:21:06.458Z,19.80
2022-07-31T20:23:34.684Z,19.70
2022-07-31T20:26:01.897Z,19.60
2022-07-31T20:28:28.872Z,19.50
2022-07-31T20:30:56.068Z,19.40
2022-07-31T20:33:23.455Z,19.30
2022-07-31T20:35:50.791Z,19.20
2022-07-31T20:38:22.457Z,19.20
2022-07-31T20:40:54.407Z,19.10
2022-07-31T20:43:27.422Z,19.10
2022-07-31T20:45:59.079Z,19.00
2022-07-31T20:48:32.318Z,19.00
2022-07-31T20:51:01.411Z,19.00
2022-07-31T20:53:29.332Z,18.90
2022-07-31T20:55:56.314Z,18.90
2022-07-31T20:58:24.312Z,18.90
2022-07-31T21:00:52.831Z,18.90
2022-07-31T21:03:20.232Z,18.80
2022-07-31T21:05:47.959Z,18.90
2022-07-31T21:08:15.494Z,18.80
2022-07-31T21:10:42.444Z,18.90
2022-07-31T21:13:09.942Z,18.80
2022-07-31T21:15:41.788Z,18.80
2022-07-31T21:18:16.045Z,18.80
2022-07-31T21:20:49.862Z,18.80
2022-07-31T21:23:17.799Z,18.80
2022-07-31T21:25:44.954Z,18.70
2022-07-31T21:28:12.183Z,18.70
2022-07-31T21:30:39.992Z,18.70
2022-07-31T21:33:10.136Z,18.80
2022-07-31T21:35:39.171Z,18.80
2022-07-31T21:38:10.396Z,18.70
2022-07-31T21:40:39.874Z,18.80
2022-07-31T21:43:07.300Z,18.70
2022-07-31T21:45:40.584Z,18.70
2022-07-31T21:48:19.357Z,18.60
2022-07-31T21:50:47.095Z,18.50
2022-07-31T21:53:14.322Z,18.40
2022-07-31T21:55:41.364Z,18.30
2022-07-31T21:58:09.098Z,18.20
2022-07-31T22:00:36.863Z,18.10
2022-07-31T22:03:04.519Z,18.10
2022-07-31T22:05:50.291Z,18.00
2022-07-31T22:08:17.861Z,18.00
2022-07-31T22:10:45.163Z,17.90
2022-07-31T22:13:12.066Z,17.80
2022-07-31T22:15:57.013Z,17.70
2022-07-31T22:18:31.048Z,17.70
2022-07-31T22:20:58.964Z,17.70
2022-07-31T22:23:27.671Z,17.50
2022-07-31T22:25:54.947Z,17.50
2022-07-31T22:28:23.778Z,17.50
2022-07-31T22:30:51.731Z,17.50
2022-07-31T22:33:19.344Z,17.50
2022-07-31T22:35:59.644Z,17.50
2022-07-31T22:38:29.831Z,17.60
2022-07-31T22:41:00.810Z,17.60
2022-07-31T22:44:10.954Z,17.70
2022-07-31T22:46:15.580Z,17.70
2022-07-31T22:48:44.331Z,17.70
2022-07-31T22:51:14.385Z,17.60
2022-07-31T22:53:43.396Z,17.50
2022-07-31T22:56:10.544Z,17.40
2022-07-31T22:58:37.454Z,17.30
2022-07-31T23:01:04.749Z,17.20
2022-07-31T23:03:31.657Z,17.20
2022-07-31T23:06:02.716Z,17.10
2022-07-31T23:08:45.415Z,17.00
2022-07-31T23:11:12.791Z,16.90
2022-07-31T23:13:39.801Z,16.80
2022-07-31T23:16:06.799Z,16.80
2022-07-31T23:18:33.661Z,16.70
2022-07-31T23:21:00.515Z,16.70
2022-07-31T23:23:27.410Z,16.60
2022-07-31T23:25:54.284Z,16.50
2022-07-31T23:28:21.201Z,16.50
2022-07-31T23:30:48.098Z,16.40
2022-07-31T23:33:16.964Z,16.40
2022-07-31T23:35:44.362Z,16.30
2022-07-31T23:38:11.237Z,16.30
2022-07-31T23:40:38.387Z,16.30
2022-07-31T23:43:05.287Z,16.20
2022-07-31T23:45:32.163Z,16.20
2022-07-31T23:47:59.156Z,16.20
2022-07-31T23:50:26.944Z,16.10
2022-07-31T23:52:53.853Z,16.10
2022-07-31T23:55:20.846Z,16.10
2022-07-31T23:57:47.905Z,16.10
